Flight Track Log - Related Links

Times and Time Zones

All times are in EDT time to prevent confusion due to time zone crossing. See the GJS3710 flight status page for this flight to view local times or setup timezone preferences in your user account.

Time Position Orientation Groundspeed Altitude Reporting Facility
EDT Latitude Longitude Course Direction KTS MPH feet Rate Location/Type
Mon 12:33:10 PM 39.8500 -75.3333 247° West 197 227 2,300  Level Philadelphia TRACON
Mon 12:34:16 PM 39.8333 -75.4167 255° West 235 270 5,200 2,619 Climbing Philadelphia TRACON
Mon 12:35:16 PM 39.8500 -75.5000 285° West 268 308 7,800 2,500 Climbing Philadelphia TRACON
Mon 12:36:16 PM 39.9167 -75.5333 339° North 292 336 10,200 1,781 Climbing Philadelphia TRACON
Mon 12:37:24 PM 40.0150 -75.5439 355° North 340 391 11,600 1,219 Climbing New York Center
Mon 12:38:24 PM 40.1064 -75.5500 357° North 357 411 12,800 800 Climbing New York Center
Mon 12:39:24 PM 40.2119 -75.5656 354° North 370 426 13,200 1,400 Climbing New York Center
Mon 12:40:24 PM 40.2892 -75.6661 315° West 356 410 15,600 1,750 Climbing New York Center
Mon 12:41:24 PM 40.3600 -75.7664 313° West 364 419 16,700 700 Climbing New York Center
Mon 12:42:24 PM 40.4303 -75.8753 310° West 387 445 17,000 950 Climbing New York Center
Mon 12:43:24 PM 40.4606 -75.9975 288° West 386 444 18,600 1,850 Climbing New York Center
Mon 12:44:24 PM 40.4775 -76.1297 280° West 381 438 20,700 1,800 Climbing New York Center
Mon 12:45:24 PM 40.4983 -76.2650 281° West 381 438 22,200 1,700 Climbing New York Center
Mon 12:46:24 PM 40.5211 -76.3981 283° West 376 433 24,100 1,600 Climbing New York Center
Mon 12:47:24 PM 40.5400 -76.5281 281° West 370 426 25,400 900 Climbing New York Center
Mon 12:48:24 PM 40.5564 -76.6606 279° West 370 426 25,900 600 Climbing New York Center
Mon 12:49:24 PM 40.5700 -76.8036 277° West 386 444 26,600 750 Climbing New York Center
Mon 12:50:24 PM 40.5833 -76.9497 277° West 399 459 27,400 850 Climbing New York Center
Mon 12:51:24 PM 40.5967 -77.0931 277° West 399 459 28,300 900 Climbing New York Center
Mon 12:52:24 PM 40.6094 -77.2392 277° West 399 459 29,200 900 Climbing New York Center
Mon 12:53:24 PM 40.6247 -77.3803 278° West 399 459 30,100 900 Climbing New York Center
Mon 12:54:24 PM 40.6353 -77.5233 276° West 399 459 31,000 1,091 Climbing New York Center
Mon 12:56:42 PM 40.6644 -77.8703 276° West 402 463 33,700 1,152 Climbing Cleveland Center
Mon 12:57:42 PM 40.6842 -78.0039 281° West 396 456 34,800 900 Climbing Cleveland Center
Mon 12:58:42 PM 40.7019 -78.1428 280° West 396 456 35,500 600 Climbing Cleveland Center
Mon 12:59:42 PM 40.7214 -78.2817 281° West 391 450 36,000 250 Climbing Cleveland Center
Mon 01:00:42 PM 40.7408 -78.4236 280° West 391 450 36,000  Level Cleveland Center
Mon 01:01:42 PM 40.7603 -78.5683 280° West 391 450 36,000  Level Cleveland Center
Mon 01:02:42 PM 40.7794 -78.7131 280° West 391 450 36,000  Level Cleveland Center
Mon 01:03:42 PM 40.7983 -78.8525 280° West 391 450 36,000  Level Cleveland Center
Mon 01:04:42 PM 40.8169 -78.9972 280° West 391 450 36,000  Level Cleveland Center
Mon 01:05:42 PM 40.8356 -79.1369 280° West 391 450 36,000  Level Cleveland Center
Mon 01:06:42 PM 40.8539 -79.2792 280° West 391 450 36,000  Level Cleveland Center
Mon 01:07:42 PM 40.8722 -79.4244 280° West 391 450 36,000  Level Cleveland Center
Mon 01:08:42 PM 40.8903 -79.5697 279° West 396 456 36,000  Level Cleveland Center
Mon 01:09:42 PM 40.9103 -79.7206 280° West 408 470 36,000  Level Cleveland Center
Mon 01:10:42 PM 40.9281 -79.8742 279° West 415 478 36,000  Level Cleveland Center
Mon 01:11:42 PM 40.9475 -80.0250 280° West 415 478 36,000  Level Cleveland Center
Mon 01:12:42 PM 40.9650 -80.1817 278° West 432 497 36,000  Level Cleveland Center
Mon 01:13:42 PM 40.9842 -80.3356 279° West 432 497 36,000  Level Cleveland Center
Mon 01:14:42 PM 40.9947 -80.4922 275° West 432 497 36,000  Level Cleveland Center
Mon 01:15:42 PM 40.9844 -80.6325 265° West 419 482 36,000  Level Cleveland Center
Mon 01:16:42 PM 40.9675 -80.7839 262° West 424 488 36,000  Level Cleveland Center
Mon 01:17:42 PM 40.9567 -80.9378 265° West 424 488 36,000  Level Cleveland Center
Mon 01:18:42 PM 40.9686 -81.0864 276° West 417 480 36,000  Level Cleveland Center
Mon 01:19:42 PM 40.9806 -81.2322 276° West 411 473 36,000  Level Cleveland Center
Mon 01:20:42 PM 40.9961 -81.3975 277° West 411 473 36,000  Level Cleveland Center
Mon 01:21:42 PM 41.0075 -81.5489 276° West 411 473 36,000  Level Cleveland Center
Mon 01:22:42 PM 41.0206 -81.7033 276° West 421 484 36,000  Level Cleveland Center
Mon 01:23:42 PM 41.0336 -81.8547 277° West 427 491 36,000  Level Cleveland Center
Mon 01:24:42 PM 41.0464 -82.0092 276° West 427 491 36,000  Level Cleveland Center
Mon 01:25:42 PM 41.0569 -82.1472 276° West 427 491 36,000  Level Cleveland Center
Mon 01:26:42 PM 41.0714 -82.3017 277° West 427 491 36,000  Level Cleveland Center
Mon 01:27:42 PM 41.0836 -82.4564 276° West 427 491 36,000  Level Cleveland Center
Mon 01:28:42 PM 41.0956 -82.6083 276° West 427 491 36,000  Level Cleveland Center
Mon 01:29:42 PM 41.1053 -82.7656 275° West 427 491 36,000  Level Cleveland Center
Mon 01:30:42 PM 41.1186 -82.9342 276° West 427 491 36,000  Level Cleveland Center
Mon 01:31:42 PM 41.1297 -83.0944 275° West 429 494 36,000  Level Cleveland Center
Mon 01:32:42 PM 41.1408 -83.2494 275° West 429 494 36,000  Level Cleveland Center
Mon 01:33:42 PM 41.1536 -83.4100 276° West 434 499 36,000  Level Cleveland Center
Mon 01:34:42 PM 41.1642 -83.5758 275° West 446 513 36,000  Level Cleveland Center
Mon 01:35:42 PM 41.1742 -83.7392 275° West 446 513 36,000  Level Cleveland Center
Mon 01:37:18 PM 41.1944 -83.9831 276° West 447 514 36,000  Level Chicago Center
Mon 01:38:20 PM 41.2056 -84.1469 275° West 447 514 36,000  Level Chicago Center
Mon 01:39:22 PM 41.2150 -84.3097 274° West 444 511 36,000  Level Chicago Center
Mon 01:40:24 PM 41.2275 -84.5036 275° West 441 507 36,000  Level Chicago Center
Mon 01:41:26 PM 41.2364 -84.6642 274° West 438 504 36,000 -194 Level Chicago Center
Mon 01:42:28 PM 41.2414 -84.8247 272° West 434 499 35,600 -823 Descending Chicago Center
Mon 01:43:30 PM 41.2464 -84.9867 272° West 438 504 34,300 -774 Descending Chicago Center
Mon 01:44:32 PM 41.2528 -85.1561 273° West 451 519 34,000 -1,008 Descending Chicago Center
Mon 01:45:35 PM 41.2597 -85.3283 273° West 461 531 32,200 -2,352 Descending Chicago Center
Mon 01:46:37 PM 41.2661 -85.4992 273° West 461 531 29,100 -2,806 Descending Chicago Center
Mon 01:47:39 PM 41.2725 -85.7006 272° West 453 521 26,400 -1,790 Descending Chicago Center
Mon 01:48:41 PM 41.2769 -85.8658 272° West 448 516 25,400 -823 Descending Chicago Center
Mon 01:49:43 PM 41.2903 -86.0350 276° West 464 534 24,700 -1,742 Descending Chicago Center
Mon 01:50:45 PM 41.3419 -86.1856 295° West 448 516 21,800 -2,903 Descending Chicago Center
Mon 01:51:47 PM 41.3894 -86.3314 294° West 436 502 18,700 -2,710 Descending Chicago Center
Mon 01:52:49 PM 41.4358 -86.4722 294° West 417 480 16,200 -2,419 Descending Chicago Center
Mon 01:53:51 PM 41.4797 -86.6086 293° West 404 465 13,700 -1,984 Descending Chicago Center
Mon 01:54:53 PM 41.5364 -86.7522 298° West 385 443 12,100 -823 Descending Chicago Center
Mon 01:55:55 PM 41.6331 -86.7917 343° North 376 433 12,000 -48 Descending Chicago Center
Mon 01:56:57 PM 41.7342 -86.8039 355° North 370 426 12,000  Level Chicago Center
Mon 01:57:59 PM 41.8314 -86.8208 353° North 358 412 12,000 -145 Level Chicago Center
Mon 01:59:01 PM 41.9208 -86.9131 323° Northwest 356 410 11,700 -677 Descending Chicago Center
Mon 02:00:03 PM 41.9642 -87.0286 297° West 350 403 10,600 -823 Descending Chicago Center
Mon 02:01:05 PM 41.9844 -87.1500 283° West 338 389 10,000 -532 Descending Chicago Center
Mon 02:02:07 PM 41.9833 -87.2569 269° West 293 337 9,500 -720 Descending Chicago Center
Mon 02:03:10 PM 41.9844 -87.3597 271° West 279 321 8,500 -1,161 Descending Chicago Center
Mon 02:04:11 PM 41.9828 -87.4772 269° West 267 307 7,100 -1,561 Descending Chicago Center
Mon 02:05:13 PM 41.9831 -87.5736 270° West 262 302 5,300 -1,513 Descending Chicago Center
Mon 02:06:06 PM 41.9833 -87.6500 270° West 240 276 4,200 -1,274 Descending Chicago TRACON
Mon 02:07:06 PM 41.9833 -87.7500 270° West 230 265 2,900 -1,190 Descending Chicago TRACON
Mon 02:08:12 PM 41.9833 -87.8167 270° West 158 182 1,700 -909 Descending Chicago TRACON
Mon 02:09:18 PM 41.9833 -87.8833 270° West 133 153 900 -727 Descending Chicago TRACON
Mon 02:11:00 PM 41.9667 -87.9000 270° West  Level FlightAware Approximate

Login

Don't have an account? Register now (free) for customized features, flight alerts, and more!